createdAt,value
2019-01-10T00:01:02.649Z,1.77
2019-01-10T00:03:36.678Z,2.73
2019-01-10T00:06:10.343Z,2.87
2019-01-10T00:08:44.212Z,2.40
2019-01-10T00:11:17.612Z,2.50
2019-01-10T00:13:51.364Z,1.80
2019-01-10T00:16:24.873Z,2.83
2019-01-10T00:18:58.727Z,2.17
2019-01-10T00:21:32.358Z,2.20
2019-01-10T00:24:06.120Z,2.13
2019-01-10T00:26:39.649Z,2.73
2019-01-10T00:29:13.313Z,2.40
2019-01-10T00:31:46.663Z,3.87
2019-01-10T00:34:20.123Z,2.40
2019-01-10T00:36:53.648Z,2.13
2019-01-10T00:39:27.254Z,2.70
2019-01-10T00:42:00.727Z,2.60
2019-01-10T00:44:34.674Z,3.10
2019-01-10T00:47:07.911Z,2.70
2019-01-10T00:49:45.030Z,2.13
2019-01-10T00:52:18.609Z,2.43
2019-01-10T00:54:52.602Z,2.47
2019-01-10T00:57:28.839Z,2.00
2019-01-10T01:00:02.684Z,2.23
2019-01-10T01:02:37.382Z,5.53
2019-01-10T01:05:12.520Z,13.10
2019-01-10T01:07:46.061Z,13.73
2019-01-10T01:10:21.681Z,14.07
2019-01-10T01:12:58.758Z,15.67
2019-01-10T01:15:30.240Z,15.77
2019-01-10T01:18:03.678Z,16.50
2019-01-10T01:20:37.718Z,17.33
2019-01-10T01:23:11.223Z,17.87
2019-01-10T01:25:45.231Z,18.73
2019-01-10T01:28:18.701Z,18.53
2019-01-10T01:30:52.142Z,18.60
2019-01-10T01:33:25.226Z,18.13
2019-01-10T01:35:59.418Z,19.17
2019-01-10T01:38:32.952Z,17.30
2019-01-10T01:41:06.861Z,15.93
2019-01-10T01:43:40.349Z,14.03
2019-01-10T01:46:13.487Z,14.00
2019-01-10T01:48:46.935Z,13.87
2019-01-10T01:51:22.941Z,13.50
2019-01-10T01:53:56.166Z,14.43
2019-01-10T01:56:29.784Z,14.87
2019-01-10T01:59:03.794Z,14.13
2019-01-10T02:01:37.211Z,14.83
2019-01-10T02:04:10.752Z,15.43
2019-01-10T02:06:44.736Z,15.60
2019-01-10T02:09:18.158Z,15.60
2019-01-10T02:11:52.406Z,16.17
2019-01-10T02:14:28.100Z,16.60
2019-01-10T02:17:01.686Z,17.03
2019-01-10T02:19:35.283Z,17.67
2019-01-10T02:22:09.272Z,17.60
2019-01-10T02:24:42.856Z,19.03
2019-01-10T02:27:16.643Z,17.73
2019-01-10T02:29:50.248Z,19.33
2019-01-10T02:32:24.082Z,18.00
2019-01-10T02:34:59.948Z,18.83
2019-01-10T02:37:33.937Z,18.80
2019-01-10T02:40:07.496Z,18.37
2019-01-10T02:42:40.988Z,18.23
2019-01-10T02:45:15.052Z,19.63
2019-01-10T02:47:49.045Z,17.03
2019-01-10T02:50:24.130Z,16.80
2019-01-10T02:53:00.982Z,18.53
2019-01-10T02:55:35.065Z,17.63
2019-01-10T02:58:08.974Z,18.90
2019-01-10T03:00:42.698Z,17.90
2019-01-10T03:03:16.766Z,15.17
2019-01-10T03:05:50.763Z,14.93
2019-01-10T03:08:24.670Z,15.10
2019-01-10T03:10:58.003Z,14.43
2019-01-10T03:13:36.574Z,10.53
2019-01-10T03:16:06.942Z,12.80
2019-01-10T03:18:40.515Z,10.30
2019-01-10T03:21:14.020Z,7.40
2019-01-10T03:23:47.909Z,9.03
2019-01-10T03:26:21.499Z,6.77
2019-01-10T03:28:55.238Z,6.87
2019-01-10T03:31:28.635Z,4.27
2019-01-10T03:34:02.272Z,4.70
2019-01-10T03:36:35.830Z,3.70
2019-01-10T03:39:11.247Z,4.43
2019-01-10T03:41:46.928Z,3.83
2019-01-10T03:44:19.570Z,3.43
2019-01-10T03:46:52.902Z,3.40
2019-01-10T03:49:26.709Z,3.50
2019-01-10T03:52:00.600Z,2.50
2019-01-10T03:54:37.280Z,3.60
2019-01-10T03:57:10.749Z,2.90
2019-01-10T03:59:44.674Z,3.07
2019-01-10T04:02:18.178Z,2.50
2019-01-10T04:04:52.332Z,2.20
2019-01-10T04:07:25.881Z,2.73
2019-01-10T04:09:59.282Z,2.00
2019-01-10T04:12:34.868Z,2.50
2019-01-10T04:15:08.334Z,1.97
2019-01-10T04:17:41.999Z,2.40
2019-01-10T04:20:17.498Z,2.23
2019-01-10T04:22:50.830Z,2.40
2019-01-10T04:25:24.378Z,2.87
2019-01-10T04:27:57.802Z,3.20
2019-01-10T04:30:31.580Z,2.93
2019-01-10T04:33:04.999Z,2.80
2019-01-10T04:35:38.669Z,2.97
2019-01-10T04:38:12.093Z,2.83
2019-01-10T04:40:45.796Z,3.17
2019-01-10T04:43:19.355Z,3.93
2019-01-10T04:45:53.166Z,2.70
2019-01-10T04:48:27.800Z,2.90
2019-01-10T04:51:01.821Z,2.77
2019-01-10T04:53:36.784Z,2.53
2019-01-10T04:56:12.984Z,2.60
2019-01-10T04:58:46.528Z,3.47
2019-01-10T05:01:20.572Z,4.50
2019-01-10T05:03:54.037Z,3.70
2019-01-10T05:06:27.947Z,5.47
2019-01-10T05:09:01.142Z,4.53
2019-01-10T05:11:37.350Z,5.03
2019-01-10T05:14:16.424Z,4.83
2019-01-10T05:16:45.892Z,4.03
2019-01-10T05:19:18.790Z,4.37
2019-01-10T05:21:52.226Z,7.43
2019-01-10T05:24:25.838Z,5.47
2019-01-10T05:26:59.595Z,5.50
2019-01-10T05:29:32.747Z,5.70
2019-01-10T05:32:06.500Z,8.07
2019-01-10T05:34:40.115Z,3.60
2019-01-10T05:37:14.100Z,6.80
2019-01-10T05:39:47.962Z,4.40
2019-01-10T05:42:21.496Z,3.80
2019-01-10T05:44:54.867Z,5.50
2019-01-10T05:47:28.751Z,6.73
2019-01-10T05:50:02.067Z,8.40
2019-01-10T05:52:35.974Z,7.53
2019-01-10T05:55:11.580Z,7.07
2019-01-10T05:57:49.192Z,7.13
2019-01-10T06:00:25.340Z,7.80
2019-01-10T06:03:00.765Z,4.70
2019-01-10T06:05:34.679Z,4.43
2019-01-10T06:08:08.345Z,6.03
2019-01-10T06:10:42.788Z,8.47
2019-01-10T06:13:16.846Z,12.97
2019-01-10T06:15:50.378Z,10.50
2019-01-10T06:18:24.414Z,8.53
2019-01-10T06:20:58.203Z,13.73
2019-01-10T06:23:31.814Z,14.60
2019-01-10T06:26:05.444Z,18.17
2019-01-10T06:28:49.912Z,18.67
2019-01-10T06:31:30.366Z,15.87
2019-01-10T06:34:06.480Z,19.80
2019-01-10T06:36:39.917Z,21.80
2019-01-10T06:39:14.610Z,21.90
2019-01-10T06:41:50.376Z,23.57
2019-01-10T06:44:24.030Z,24.70
2019-01-10T06:46:57.744Z,18.63
2019-01-10T06:49:31.300Z,21.30
2019-01-10T06:52:07.246Z,24.27
2019-01-10T06:54:40.786Z,36.00
2019-01-10T06:57:14.568Z,33.63
2019-01-10T06:59:48.904Z,29.37
2019-01-10T07:02:23.652Z,29.43
2019-01-10T07:04:58.538Z,29.37
2019-01-10T07:07:32.140Z,26.00
2019-01-10T07:10:08.514Z,26.13
2019-01-10T07:12:42.110Z,25.30
2019-01-10T07:15:17.655Z,27.50
2019-01-10T07:17:51.273Z,22.03
2019-01-10T07:20:25.532Z,25.13
2019-01-10T07:23:03.282Z,23.97
2019-01-10T07:25:37.305Z,24.33
2019-01-10T07:28:26.476Z,25.10
2019-01-10T07:31:01.408Z,25.20
2019-01-10T07:33:34.965Z,31.10
2019-01-10T07:36:08.450Z,27.60
2019-01-10T07:38:46.942Z,28.50
2019-01-10T07:41:20.923Z,27.30
2019-01-10T07:43:54.869Z,27.97
2019-01-10T07:46:29.093Z,23.60
2019-01-10T07:49:02.777Z,22.53
2019-01-10T07:51:49.496Z,22.13
2019-01-10T07:54:25.401Z,26.53
2019-01-10T07:56:57.626Z,27.17
2019-01-10T07:59:33.545Z,25.63
2019-01-10T08:02:10.280Z,25.00
2019-01-10T08:04:46.317Z,24.60
2019-01-10T08:07:21.344Z,26.47
2019-01-10T08:09:55.880Z,27.03
2019-01-10T08:12:29.698Z,26.53
2019-01-10T08:15:11.624Z,28.30
2019-01-10T08:17:41.788Z,24.70
2019-01-10T08:20:16.094Z,30.17
2019-01-10T08:22:51.469Z,26.87
2019-01-10T08:25:25.138Z,26.50
2019-01-10T08:28:00.156Z,24.03
2019-01-10T08:30:33.792Z,22.70
2019-01-10T08:33:08.018Z,25.70
2019-01-10T08:35:41.522Z,26.30
2019-01-10T08:38:16.384Z,24.10
2019-01-10T08:40:50.564Z,26.50
2019-01-10T08:43:24.274Z,28.03
2019-01-10T08:45:59.238Z,28.03
2019-01-10T08:48:33.748Z,25.90
2019-01-10T08:51:06.920Z,28.37
2019-01-10T08:53:40.390Z,29.90
2019-01-10T08:56:14.574Z,29.50
2019-01-10T08:58:54.086Z,24.87
2019-01-10T09:01:28.058Z,28.77
2019-01-10T09:04:02.384Z,27.63
2019-01-10T09:06:35.559Z,32.00
2019-01-10T09:09:11.178Z,33.70
2019-01-10T09:11:45.658Z,31.20
2019-01-10T09:14:21.611Z,33.30
2019-01-10T09:16:56.982Z,35.40
2019-01-10T09:19:31.109Z,36.20
2019-01-10T09:22:05.147Z,36.07
2019-01-10T09:24:39.463Z,34.70
2019-01-10T09:27:14.550Z,32.83
2019-01-10T09:29:48.901Z,36.30
2019-01-10T09:32:21.926Z,32.43
2019-01-10T09:34:56.064Z,36.10
2019-01-10T09:37:30.826Z,41.63
2019-01-10T09:40:10.175Z,40.77
2019-01-10T09:42:44.816Z,37.13
2019-01-10T09:45:21.762Z,37.60
2019-01-10T09:47:55.524Z,38.60
2019-01-10T09:50:31.444Z,37.07
2019-01-10T09:53:05.374Z,37.73
2019-01-10T09:55:40.187Z,36.77
2019-01-10T09:58:13.983Z,29.90
2019-01-10T10:00:48.907Z,27.40
2019-01-10T10:03:23.156Z,23.60
2019-01-10T10:05:56.490Z,24.50
2019-01-10T10:08:33.499Z,19.73
2019-01-10T10:11:09.786Z,20.10
2019-01-10T10:13:44.275Z,11.77
2019-01-10T10:16:19.056Z,9.57
2019-01-10T10:18:52.510Z,9.63
2019-01-10T10:21:26.779Z,9.70
2019-01-10T10:24:00.454Z,11.80
2019-01-10T10:26:34.699Z,7.00
2019-01-10T10:29:11.966Z,7.87
2019-01-10T10:31:48.277Z,5.67
2019-01-10T10:34:22.607Z,6.07
2019-01-10T10:36:57.450Z,5.23
2019-01-10T10:39:31.385Z,8.00
2019-01-10T10:42:07.502Z,7.97
2019-01-10T10:44:41.783Z,6.43
2019-01-10T10:47:16.993Z,7.10
2019-01-10T10:49:51.655Z,7.60
2019-01-10T10:52:30.283Z,7.63
2019-01-10T10:55:05.284Z,8.70
2019-01-10T10:57:39.972Z,11.03
2019-01-10T11:00:18.554Z,6.53
2019-01-10T11:02:53.386Z,5.77
2019-01-10T11:05:28.020Z,7.23
2019-01-10T11:08:02.862Z,4.17
2019-01-10T11:10:38.256Z,7.30
2019-01-10T11:13:15.152Z,5.20
2019-01-10T11:15:50.137Z,5.30
2019-01-10T11:18:24.958Z,6.83
2019-01-10T11:20:58.966Z,4.97
2019-01-10T11:23:33.352Z,13.67
2019-01-10T11:26:07.390Z,5.50
2019-01-10T11:28:42.354Z,5.63
2019-01-10T11:31:15.793Z,5.00
2019-01-10T11:33:51.420Z,7.67
2019-01-10T11:36:25.567Z,5.37
2019-01-10T11:39:01.060Z,6.87
2019-01-10T11:41:37.940Z,7.07
2019-01-10T11:44:14.493Z,17.17
2019-01-10T11:46:49.611Z,8.40
2019-01-10T11:49:23.565Z,5.60
2019-01-10T11:51:57.120Z,4.67
2019-01-10T11:54:31.327Z,5.00
2019-01-10T11:57:05.116Z,4.10
2019-01-10T11:59:42.085Z,3.63
2019-01-10T12:02:15.546Z,4.50
2019-01-10T12:04:49.652Z,3.80
2019-01-10T12:07:23.253Z,5.17
2019-01-10T12:10:02.187Z,4.53
2019-01-10T12:12:35.800Z,7.27
2019-01-10T12:15:09.983Z,5.83
2019-01-10T12:17:44.394Z,5.50
2019-01-10T12:20:19.072Z,6.37
2019-01-10T12:22:54.532Z,5.77
2019-01-10T12:25:28.399Z,5.23
2019-01-10T12:28:02.987Z,6.87
2019-01-10T12:30:37.674Z,4.93
2019-01-10T12:33:11.247Z,6.13
2019-01-10T12:35:44.897Z,3.63
2019-01-10T12:38:19.803Z,5.90
2019-01-10T12:40:54.279Z,5.97
2019-01-10T12:43:29.146Z,4.63
2019-01-10T12:46:05.853Z,6.77
2019-01-10T12:48:40.722Z,5.37
2019-01-10T12:51:15.201Z,7.10
2019-01-10T12:53:49.202Z,20.53
2019-01-10T12:56:24.626Z,5.93
2019-01-10T12:58:57.899Z,4.07
2019-01-10T13:01:32.211Z,5.40
2019-01-10T13:04:07.956Z,5.37
2019-01-10T13:06:42.534Z,4.93
2019-01-10T13:09:18.903Z,5.60
2019-01-10T13:11:54.538Z,5.97
2019-01-10T13:14:29.226Z,4.90
2019-01-10T13:17:03.637Z,4.83
2019-01-10T13:19:37.722Z,7.40
2019-01-10T13:22:12.123Z,6.80
2019-01-10T13:24:46.658Z,5.97
2019-01-10T13:27:20.522Z,5.10
2019-01-10T13:29:57.269Z,6.17
2019-01-10T13:32:32.949Z,5.20
2019-01-10T13:35:13.606Z,3.57
2019-01-10T13:37:50.059Z,3.57
2019-01-10T13:40:26.097Z,4.77
2019-01-10T13:43:02.562Z,3.83
2019-01-10T13:45:45.943Z,2.40
2019-01-10T13:48:14.952Z,4.07
2019-01-10T13:50:50.130Z,1.70
2019-01-10T13:53:25.252Z,3.33
2019-01-10T13:55:59.047Z,3.73
2019-01-10T13:58:34.546Z,3.37
2019-01-10T14:01:11.974Z,2.50
2019-01-10T14:03:46.554Z,2.70
2019-01-10T14:06:20.095Z,3.97
2019-01-10T14:08:54.992Z,3.00
2019-01-10T14:11:30.888Z,2.53
2019-01-10T14:14:08.862Z,2.60
2019-01-10T14:16:43.313Z,5.90
2019-01-10T14:19:17.888Z,5.73
2019-01-10T14:21:51.855Z,3.30
2019-01-10T14:24:25.732Z,4.77
2019-01-10T14:26:59.714Z,5.77
2019-01-10T14:29:35.182Z,4.27
2019-01-10T14:32:09.650Z,11.63
2019-01-10T14:34:45.004Z,7.30
2019-01-10T14:37:20.216Z,5.47
2019-01-10T14:39:55.360Z,4.30
2019-01-10T14:42:29.453Z,5.43
2019-01-10T14:45:04.478Z,4.47
2019-01-10T14:47:39.058Z,3.00
2019-01-10T14:50:14.222Z,4.00
2019-01-10T14:52:48.102Z,5.83
2019-01-10T14:55:23.267Z,3.73
2019-01-10T14:58:00.677Z,5.13
2019-01-10T15:00:34.337Z,4.93
2019-01-10T15:03:09.343Z,3.50
2019-01-10T15:05:44.071Z,5.20
2019-01-10T15:08:18.028Z,5.13
2019-01-10T15:10:54.100Z,4.53
2019-01-10T15:13:29.562Z,3.37
2019-01-10T15:16:03.624Z,5.70
2019-01-10T15:18:38.304Z,5.83
2019-01-10T15:21:12.576Z,7.30
2019-01-10T15:23:45.955Z,5.00
2019-01-10T15:26:21.712Z,4.50
2019-01-10T15:28:56.572Z,4.00
2019-01-10T15:31:34.607Z,4.07
2019-01-10T15:34:09.552Z,6.00
2019-01-10T15:36:44.452Z,6.17
2019-01-10T15:39:18.172Z,4.30
2019-01-10T15:41:51.906Z,4.27
2019-01-10T15:44:29.141Z,4.83
2019-01-10T15:47:03.660Z,5.67
2019-01-10T15:49:37.779Z,4.53
2019-01-10T15:52:27.648Z,3.90
2019-01-10T15:55:03.734Z,4.30
2019-01-10T15:57:42.950Z,7.90
2019-01-10T16:00:20.130Z,7.70
2019-01-10T16:02:54.197Z,5.80
2019-01-10T16:05:28.628Z,5.50
2019-01-10T16:08:02.438Z,6.37
2019-01-10T16:10:36.109Z,7.77
2019-01-10T16:13:09.800Z,5.63
2019-01-10T16:15:44.053Z,5.67
2019-01-10T16:18:18.835Z,4.20
2019-01-10T16:20:52.467Z,5.23
2019-01-10T16:23:26.162Z,5.83
2019-01-10T16:26:00.846Z,7.73
2019-01-10T16:28:34.953Z,6.20
2019-01-10T16:31:09.365Z,7.70
2019-01-10T16:33:45.318Z,8.53
2019-01-10T16:36:19.043Z,8.10
2019-01-10T16:38:54.070Z,6.53
2019-01-10T16:41:29.344Z,8.40
2019-01-10T16:44:03.506Z,7.93
2019-01-10T16:46:38.135Z,7.10
2019-01-10T16:49:14.519Z,7.13
2019-01-10T16:51:50.251Z,6.20
2019-01-10T16:54:24.406Z,6.07
2019-01-10T16:57:02.223Z,7.97
2019-01-10T16:59:38.027Z,9.80
2019-01-10T17:02:12.291Z,7.43
2019-01-10T17:04:47.442Z,6.13
2019-01-10T17:07:21.246Z,8.43
2019-01-10T17:09:55.516Z,8.90
2019-01-10T17:12:29.243Z,6.23
2019-01-10T17:15:04.313Z,8.23
2019-01-10T17:17:39.829Z,8.67
2019-01-10T17:20:16.177Z,9.77
2019-01-10T17:22:50.159Z,7.50
2019-01-10T17:25:25.287Z,20.60
2019-01-10T17:27:58.879Z,8.93
2019-01-10T17:30:35.343Z,8.77
2019-01-10T17:33:09.558Z,8.33
2019-01-10T17:35:44.403Z,12.37
2019-01-10T17:38:21.360Z,11.83
2019-01-10T17:40:58.014Z,10.43
2019-01-10T17:43:33.949Z,11.53
2019-01-10T17:46:08.097Z,12.03
2019-01-10T17:48:42.964Z,12.37
2019-01-10T17:51:18.801Z,11.17
2019-01-10T17:53:52.425Z,15.40
2019-01-10T17:56:26.401Z,13.07
2019-01-10T17:59:00.252Z,13.67
2019-01-10T18:01:32.939Z,13.97
2019-01-10T18:04:06.717Z,14.67
2019-01-10T18:06:42.697Z,16.47
2019-01-10T18:09:16.520Z,18.73
2019-01-10T18:11:51.581Z,16.43
2019-01-10T18:14:25.183Z,17.83
2019-01-10T18:16:58.810Z,17.10
2019-01-10T18:19:32.558Z,18.57
2019-01-10T18:22:08.752Z,19.70
2019-01-10T18:24:42.769Z,18.30
2019-01-10T18:27:17.006Z,17.57
2019-01-10T18:29:51.061Z,17.13
2019-01-10T18:32:26.089Z,18.60
2019-01-10T18:35:00.442Z,19.23
2019-01-10T18:37:36.925Z,21.30
2019-01-10T18:40:11.875Z,21.40
2019-01-10T18:42:46.357Z,21.40
2019-01-10T18:45:23.301Z,21.93
2019-01-10T18:47:57.689Z,22.40
2019-01-10T18:50:31.594Z,20.00
2019-01-10T18:53:05.653Z,20.93
2019-01-10T18:55:39.235Z,23.13
2019-01-10T18:58:13.852Z,22.73
2019-01-10T19:00:47.891Z,20.30
2019-01-10T19:03:22.356Z,19.97
2019-01-10T19:05:55.910Z,20.47
2019-01-10T19:08:29.831Z,20.20
2019-01-10T19:11:03.726Z,22.33
2019-01-10T19:13:38.345Z,18.87
2019-01-10T19:16:12.182Z,19.37
2019-01-10T19:18:46.639Z,19.07
2019-01-10T19:21:22.431Z,19.13
2019-01-10T19:23:57.049Z,20.00
2019-01-10T19:26:32.666Z,19.13
2019-01-10T19:29:06.801Z,18.43
2019-01-10T19:31:40.583Z,17.70
2019-01-10T19:34:16.291Z,19.00
2019-01-10T19:36:50.670Z,19.60
2019-01-10T19:39:25.044Z,17.47
2019-01-10T19:42:00.362Z,17.87
2019-01-10T19:44:34.594Z,18.67
2019-01-10T19:47:10.195Z,17.30
2019-01-10T19:49:44.135Z,17.30
2019-01-10T19:52:18.809Z,18.33
2019-01-10T19:54:54.022Z,20.70
2019-01-10T19:57:30.207Z,16.83
2019-01-10T20:00:06.447Z,16.73
2019-01-10T20:02:46.596Z,16.93
2019-01-10T20:05:20.624Z,20.50
2019-01-10T20:07:54.665Z,16.93
2019-01-10T20:10:29.021Z,17.70
2019-01-10T20:13:03.905Z,18.37
2019-01-10T20:15:43.543Z,19.83
2019-01-10T20:18:17.062Z,22.07
2019-01-10T20:20:50.895Z,18.27
2019-01-10T20:23:39.639Z,19.87
2019-01-10T20:26:13.835Z,23.60
2019-01-10T20:28:49.631Z,22.30
2019-01-10T20:31:25.766Z,27.27
2019-01-10T20:34:02.944Z,21.27
2019-01-10T20:36:38.479Z,22.27
2019-01-10T20:39:12.043Z,19.13
2019-01-10T20:41:45.826Z,20.43
2019-01-10T20:44:19.350Z,19.33
2019-01-10T20:46:57.747Z,19.50
2019-01-10T20:49:31.365Z,16.70
2019-01-10T20:52:05.344Z,19.90
2019-01-10T20:54:39.739Z,18.33
2019-01-10T20:57:14.242Z,18.00
2019-01-10T20:59:49.390Z,18.30
2019-01-10T21:02:30.169Z,15.30
2019-01-10T21:05:04.466Z,13.43
2019-01-10T21:07:38.591Z,12.53
2019-01-10T21:10:13.620Z,12.90
2019-01-10T21:12:47.924Z,11.73
2019-01-10T21:15:24.777Z,14.00
2019-01-10T21:17:59.274Z,12.10
2019-01-10T21:20:36.483Z,12.23
2019-01-10T21:23:10.335Z,14.80
2019-01-10T21:25:43.969Z,12.07
2019-01-10T21:28:20.204Z,14.97
2019-01-10T21:30:53.347Z,16.57
2019-01-10T21:33:33.207Z,14.03
2019-01-10T21:36:07.011Z,13.00
2019-01-10T21:38:40.454Z,13.50
2019-01-10T21:41:14.078Z,16.07
2019-01-10T21:43:48.075Z,17.67
2019-01-10T21:46:21.870Z,14.33
2019-01-10T21:48:55.292Z,13.90
2019-01-10T21:51:29.201Z,14.83
2019-01-10T21:54:03.188Z,15.70
2019-01-10T21:56:36.785Z,15.07
2019-01-10T21:59:10.349Z,15.53
2019-01-10T22:01:45.453Z,15.33
2019-01-10T22:04:19.511Z,17.77
2019-01-10T22:06:53.179Z,15.73
2019-01-10T22:09:31.933Z,24.73
2019-01-10T22:12:05.502Z,17.27
2019-01-10T22:14:39.535Z,18.93
2019-01-10T22:17:13.087Z,16.47
2019-01-10T22:19:47.255Z,16.03
2019-01-10T22:22:20.537Z,15.67
2019-01-10T22:24:54.559Z,11.93
2019-01-10T22:27:28.182Z,10.60
2019-01-10T22:30:09.583Z,10.60
2019-01-10T22:32:42.861Z,9.43
2019-01-10T22:35:18.594Z,14.97
2019-01-10T22:37:52.625Z,13.83
2019-01-10T22:40:27.114Z,12.97
2019-01-10T22:43:03.111Z,9.37
2019-01-10T22:45:37.653Z,9.23
2019-01-10T22:48:11.145Z,12.40
2019-01-10T22:50:45.145Z,13.57
2019-01-10T22:53:18.602Z,13.47
2019-01-10T22:55:52.411Z,14.23
2019-01-10T22:58:26.001Z,13.53
2019-01-10T23:01:36.426Z,16.10
2019-01-10T23:04:11.216Z,12.60
2019-01-10T23:06:45.311Z,11.50
2019-01-10T23:09:19.410Z,13.10
2019-01-10T23:11:54.122Z,14.80
2019-01-10T23:14:27.789Z,16.00
2019-01-10T23:17:01.693Z,12.43
2019-01-10T23:19:36.105Z,11.77
2019-01-10T23:22:14.901Z,11.33
2019-01-10T23:24:57.264Z,11.37
2019-01-10T23:27:31.387Z,11.20
2019-01-10T23:30:05.851Z,10.60
2019-01-10T23:32:41.026Z,12.40
2019-01-10T23:35:14.581Z,12.97
2019-01-10T23:37:51.319Z,12.93
2019-01-10T23:40:25.186Z,12.53
2019-01-10T23:42:59.013Z,12.43
2019-01-10T23:45:32.745Z,10.67
2019-01-10T23:48:06.368Z,10.27
2019-01-10T23:50:39.929Z,10.57
2019-01-10T23:53:14.170Z,10.13
2019-01-10T23:55:49.966Z,10.80
2019-01-10T23:58:23.737Z,8.27
